createdAt,value
2018-03-18T00:02:07.782Z,-2.00
2018-03-18T00:04:36.440Z,-2.00
2018-03-18T00:09:40.159Z,-2.20
2018-03-18T00:12:08.405Z,-2.20
2018-03-18T00:14:36.781Z,-2.10
2018-03-18T00:17:05.594Z,-2.10
2018-03-18T00:22:08.607Z,-2.20
2018-03-18T00:24:36.968Z,-2.20
2018-03-18T00:27:05.157Z,-2.20
2018-03-18T00:29:33.402Z,-2.20
2018-03-18T00:32:01.596Z,-2.10
2018-03-18T00:34:29.912Z,-2.10
2018-03-18T00:36:58.181Z,-2.10
2018-03-18T00:39:26.401Z,-2.10
2018-03-18T00:41:54.650Z,-2.10
2018-03-18T00:44:24.021Z,-2.10
2018-03-18T00:46:53.291Z,-2.10
2018-03-18T00:49:22.037Z,-2.10
2018-03-18T00:52:01.241Z,-2.10
2018-03-18T00:54:29.773Z,-2.10
2018-03-18T00:56:58.169Z,-2.10
2018-03-18T00:59:26.444Z,-2.00
2018-03-18T01:01:55.428Z,-2.10
2018-03-18T01:04:24.408Z,-2.10
2018-03-18T01:06:54.024Z,-2.10
2018-03-18T01:09:22.255Z,-2.20
2018-03-18T01:11:50.551Z,-2.20
2018-03-18T01:14:18.753Z,-2.20
2018-03-18T01:16:46.997Z,-2.30
2018-03-18T01:19:15.325Z,-2.40
2018-03-18T01:21:44.405Z,-2.30
2018-03-18T01:24:12.751Z,-2.40
2018-03-18T01:26:40.938Z,-2.30
2018-03-18T01:29:09.178Z,-2.30
2018-03-18T01:31:37.416Z,-2.30
2018-03-18T01:34:05.596Z,-2.30
2018-03-18T01:36:33.840Z,-2.30
2018-03-18T01:39:02.082Z,-2.30
2018-03-18T01:41:30.285Z,-2.20
2018-03-18T01:43:58.532Z,-2.20
2018-03-18T01:46:26.733Z,-2.20
2018-03-18T01:48:54.978Z,-2.20
2018-03-18T01:51:23.458Z,-2.30
2018-03-18T01:53:51.662Z,-2.30
2018-03-18T01:56:19.913Z,-2.30
2018-03-18T01:58:48.179Z,-2.20
2018-03-18T02:01:16.588Z,-2.20
2018-03-18T02:03:44.772Z,-2.30
2018-03-18T02:06:13.072Z,-2.30
2018-03-18T02:08:41.354Z,-2.40
2018-03-18T02:11:10.137Z,-2.30
2018-03-18T02:13:38.360Z,-2.30
2018-03-18T02:16:06.566Z,-2.30
2018-03-18T02:18:34.777Z,-2.30
2018-03-18T02:21:03.796Z,-2.30
2018-03-18T02:23:32.029Z,-2.40
2018-03-18T02:26:00.249Z,-2.30
2018-03-18T02:28:28.600Z,-2.30
2018-03-18T02:30:56.789Z,-2.30
2018-03-18T02:33:25.854Z,-2.40
2018-03-18T02:35:54.189Z,-2.40
2018-03-18T02:38:22.495Z,-2.40
2018-03-18T02:40:50.750Z,-2.30
2018-03-18T02:43:19.106Z,-2.30
2018-03-18T02:45:47.273Z,-2.30
2018-03-18T02:48:16.254Z,-2.20
2018-03-18T02:50:45.290Z,-2.20
2018-03-18T02:53:13.548Z,-2.20
2018-03-18T02:55:41.761Z,-2.30
2018-03-18T02:58:10.005Z,-2.30
2018-03-18T03:00:38.236Z,-2.30
2018-03-18T03:03:06.472Z,-2.40
2018-03-18T03:05:34.717Z,-2.40
2018-03-18T03:08:02.929Z,-2.40
2018-03-18T03:10:31.177Z,-2.50
2018-03-18T03:12:59.468Z,-2.40
2018-03-18T03:15:27.674Z,-2.50
2018-03-18T03:17:55.890Z,-2.60
2018-03-18T03:20:24.204Z,-2.50
2018-03-18T03:22:52.403Z,-2.50
2018-03-18T03:25:20.664Z,-2.50
2018-03-18T03:27:48.958Z,-2.50
2018-03-18T03:30:17.221Z,-2.50
2018-03-18T03:32:45.435Z,-2.50
2018-03-18T03:35:13.732Z,-2.40
2018-03-18T03:37:41.928Z,-2.50
2018-03-18T03:40:10.365Z,-2.40
2018-03-18T03:42:39.413Z,-2.50
2018-03-18T03:45:07.641Z,-2.50
2018-03-18T03:47:36.616Z,-2.40
2018-03-18T03:50:04.966Z,-2.40
2018-03-18T03:52:33.171Z,-2.50
2018-03-18T03:55:01.379Z,-2.50
2018-03-18T03:57:29.656Z,-2.50
2018-03-18T03:59:57.885Z,-2.60
2018-03-18T04:02:26.102Z,-2.50
2018-03-18T04:04:54.357Z,-2.60
2018-03-18T04:07:23.353Z,-2.50
2018-03-18T04:09:52.335Z,-2.50
2018-03-18T04:12:20.557Z,-2.50
2018-03-18T04:14:48.859Z,-2.40
2018-03-18T04:17:17.150Z,-2.40
2018-03-18T04:19:45.468Z,-2.50
2018-03-18T04:22:13.787Z,-2.60
2018-03-18T04:24:42.081Z,-2.60
2018-03-18T04:27:10.390Z,-2.60
2018-03-18T04:29:39.370Z,-2.50
2018-03-18T04:32:08.461Z,-2.40
2018-03-18T04:34:37.470Z,-2.40
2018-03-18T04:37:06.556Z,-2.50
2018-03-18T04:39:35.573Z,-2.50
2018-03-18T04:42:04.919Z,-2.70
2018-03-18T04:44:33.118Z,-2.70
2018-03-18T04:47:01.322Z,-2.70
2018-03-18T04:49:29.558Z,-2.60
2018-03-18T04:51:57.847Z,-2.70
2018-03-18T04:54:26.046Z,-2.70
2018-03-18T04:56:54.312Z,-2.70
2018-03-18T04:59:22.554Z,-2.70
2018-03-18T05:01:50.789Z,-2.80
2018-03-18T05:04:19.860Z,-2.80
2018-03-18T05:06:48.062Z,-2.80
2018-03-18T05:09:16.289Z,-2.80
2018-03-18T05:11:44.542Z,-2.80
2018-03-18T05:14:14.033Z,-2.80
2018-03-18T05:16:42.251Z,-2.80
2018-03-18T05:19:11.252Z,-2.70
2018-03-18T05:21:40.355Z,-2.70
2018-03-18T05:24:08.546Z,-2.70
2018-03-18T05:26:36.909Z,-2.70
2018-03-18T05:29:05.906Z,-2.80
2018-03-18T05:31:34.931Z,-2.90
2018-03-18T05:34:03.195Z,-2.90
2018-03-18T05:36:31.409Z,-2.90
2018-03-18T05:38:59.604Z,-2.80
2018-03-18T05:41:27.908Z,-2.80
2018-03-18T05:43:56.180Z,-2.90
2018-03-18T05:46:24.432Z,-2.90
2018-03-18T05:48:52.824Z,-2.90
2018-03-18T05:51:21.050Z,-2.80
2018-03-18T05:53:49.825Z,-2.80
2018-03-18T05:56:19.046Z,-2.90
2018-03-18T05:58:47.445Z,-2.90
2018-03-18T06:01:15.899Z,-2.80
2018-03-18T06:03:45.653Z,-2.90
2018-03-18T06:06:13.841Z,-2.90
2018-03-18T06:08:42.815Z,-2.70
2018-03-18T06:11:11.201Z,-2.70
2018-03-18T06:13:39.424Z,-2.70
2018-03-18T06:16:07.986Z,-2.60
2018-03-18T06:18:37.825Z,-2.70
2018-03-18T06:21:06.208Z,-2.70
2018-03-18T06:23:34.491Z,-2.60
2018-03-18T06:26:02.736Z,-2.50
2018-03-18T06:28:30.947Z,-2.70
2018-03-18T06:30:59.197Z,-2.60
2018-03-18T06:33:28.397Z,-2.50
2018-03-18T06:35:56.718Z,-2.60
2018-03-18T06:38:25.690Z,-2.50
2018-03-18T06:40:53.962Z,-2.50
2018-03-18T06:43:22.265Z,-2.40
2018-03-18T06:45:50.509Z,-2.40
2018-03-18T06:48:18.772Z,-2.60
2018-03-18T06:50:47.022Z,-2.40
2018-03-18T06:53:16.010Z,-2.30
2018-03-18T06:55:44.278Z,-2.30
2018-03-18T06:58:13.246Z,-2.30
2018-03-18T07:00:41.490Z,-2.30
2018-03-18T07:03:09.869Z,-2.10
2018-03-18T07:05:38.162Z,-2.00
2018-03-18T07:08:06.425Z,-1.80
2018-03-18T07:10:35.349Z,-1.90
2018-03-18T07:13:03.691Z,-1.70
2018-03-18T07:15:31.902Z,-1.80
2018-03-18T07:18:00.192Z,-1.80
2018-03-18T07:20:28.400Z,-1.80
2018-03-18T07:22:56.739Z,-2.00
2018-03-18T07:25:26.925Z,-1.70
2018-03-18T07:27:55.178Z,-1.70
2018-03-18T07:30:23.563Z,-1.60
2018-03-18T07:32:51.838Z,-1.70
2018-03-18T07:35:21.063Z,-1.30
2018-03-18T07:37:49.992Z,-1.30
2018-03-18T07:40:21.534Z,-1.20
2018-03-18T07:42:49.768Z,-1.20
2018-03-18T07:45:18.013Z,-1.10
2018-03-18T07:47:46.402Z,-1.10
2018-03-18T07:50:15.133Z,-1.10
2018-03-18T07:52:43.364Z,-1.00
2018-03-18T07:55:11.603Z,-0.80
2018-03-18T07:57:40.584Z,-1.10
2018-03-18T08:00:08.962Z,-1.10
2018-03-18T08:02:37.198Z,-1.60
2018-03-18T08:05:05.428Z,-1.50
2018-03-18T08:07:34.429Z,-1.10
2018-03-18T08:10:02.688Z,-1.10
2018-03-18T08:12:31.681Z,-0.80
2018-03-18T08:14:59.869Z,-0.80
2018-03-18T08:17:28.892Z,-0.80
2018-03-18T08:19:57.158Z,-0.80
2018-03-18T08:22:25.441Z,-0.50
2018-03-18T08:24:53.921Z,-0.80
2018-03-18T08:27:22.199Z,-0.70
2018-03-18T08:32:21.440Z,-0.10
2018-03-18T08:34:49.632Z,0.00
2018-03-18T08:37:17.960Z,0.00
2018-03-18T08:39:47.252Z,-0.30
2018-03-18T08:42:27.987Z,0.00
2018-03-18T08:44:56.300Z,-0.10
2018-03-18T08:47:25.316Z,-0.10
2018-03-18T08:49:53.524Z,-0.20
2018-03-18T08:52:21.890Z,0.20
2018-03-18T08:54:50.891Z,0.10
2018-03-18T08:57:19.319Z,0.20
2018-03-18T08:59:48.452Z,-0.40
2018-03-18T09:02:16.847Z,-0.50
2018-03-18T09:04:45.162Z,-0.20
2018-03-18T09:07:13.408Z,0.30
2018-03-18T09:09:41.613Z,0.40
2018-03-18T09:12:10.593Z,0.30
2018-03-18T09:14:38.960Z,0.30
2018-03-18T09:17:07.615Z,0.40
2018-03-18T09:19:35.918Z,0.40
2018-03-18T09:22:04.348Z,0.40
2018-03-18T09:24:32.703Z,0.50
2018-03-18T09:27:01.672Z,0.30
2018-03-18T09:29:29.973Z,0.30
2018-03-18T09:31:58.976Z,-0.40
2018-03-18T09:34:27.955Z,-0.40
2018-03-18T09:36:56.253Z,-0.40
2018-03-18T09:39:25.211Z,0.40
2018-03-18T09:41:53.428Z,0.40
2018-03-18T09:44:21.710Z,0.40
2018-03-18T09:46:49.917Z,0.30
2018-03-18T09:49:18.153Z,0.40
2018-03-18T09:51:46.656Z,0.40
2018-03-18T09:54:14.905Z,0.80
2018-03-18T09:56:43.204Z,1.10
2018-03-18T09:59:11.450Z,0.80
2018-03-18T10:01:40.445Z,1.30
2018-03-18T10:04:08.651Z,1.30
2018-03-18T10:06:36.950Z,1.60
2018-03-18T10:09:05.149Z,2.20
2018-03-18T10:11:33.357Z,2.20
2018-03-18T10:14:01.644Z,1.70
2018-03-18T10:16:30.554Z,1.70
2018-03-18T10:18:58.791Z,1.70
2018-03-18T10:21:27.021Z,1.50
2018-03-18T10:23:55.224Z,1.90
2018-03-18T10:26:24.197Z,2.30
2018-03-18T10:28:52.488Z,2.30
2018-03-18T10:31:20.645Z,2.60
2018-03-18T10:33:48.858Z,2.50
2018-03-18T10:36:17.113Z,2.50
2018-03-18T10:38:45.325Z,2.40
2018-03-18T10:41:13.520Z,2.70
2018-03-18T10:43:41.745Z,2.70
2018-03-18T10:46:10.717Z,2.20
2018-03-18T10:48:38.979Z,2.20
2018-03-18T10:51:07.229Z,2.20
2018-03-18T10:53:35.709Z,2.50
2018-03-18T10:56:04.080Z,2.30
2018-03-18T10:58:32.607Z,2.70
2018-03-18T11:01:06.424Z,2.90
2018-03-18T11:03:34.726Z,2.60
2018-03-18T11:06:03.697Z,2.70
2018-03-18T11:08:32.033Z,2.60
2018-03-18T11:11:00.269Z,2.90
2018-03-18T11:13:29.245Z,2.70
2018-03-18T11:15:57.469Z,2.60
2018-03-18T11:18:26.548Z,3.20
2018-03-18T11:20:54.772Z,3.20
2018-03-18T11:23:22.988Z,3.30
2018-03-18T11:25:53.533Z,2.20
2018-03-18T11:28:22.649Z,2.80
2018-03-18T11:30:50.960Z,2.80
2018-03-18T11:33:19.184Z,3.40
2018-03-18T11:35:47.397Z,4.10
2018-03-18T11:38:15.604Z,3.60
2018-03-18T11:40:44.597Z,3.20
2018-03-18T11:43:12.789Z,3.10
2018-03-18T11:45:41.790Z,2.30
2018-03-18T11:48:10.016Z,2.30
2018-03-18T11:50:38.270Z,2.70
2018-03-18T11:53:06.517Z,3.00
2018-03-18T11:55:34.759Z,2.20
2018-03-18T11:58:02.986Z,2.40
2018-03-18T12:00:31.280Z,2.70
2018-03-18T12:02:59.605Z,2.20
2018-03-18T12:05:28.592Z,3.00
2018-03-18T12:07:56.895Z,2.90
2018-03-18T12:10:25.227Z,2.80
2018-03-18T12:12:53.453Z,2.80
2018-03-18T12:15:21.752Z,3.40
2018-03-18T12:17:50.731Z,2.50
2018-03-18T12:20:19.061Z,2.50
2018-03-18T12:22:47.360Z,3.00
2018-03-18T12:25:16.437Z,3.50
2018-03-18T12:27:44.881Z,3.40
2018-03-18T12:30:13.200Z,2.90
2018-03-18T12:32:41.499Z,3.00
2018-03-18T12:35:09.841Z,2.90
2018-03-18T12:37:38.067Z,3.50
2018-03-18T12:40:20.473Z,4.20
2018-03-18T12:43:00.669Z,4.60
2018-03-18T12:45:28.916Z,4.10
2018-03-18T12:47:57.097Z,4.90
2018-03-18T12:50:25.361Z,5.60
2018-03-18T12:52:53.601Z,6.00
2018-03-18T12:55:22.801Z,3.80
2018-03-18T12:57:51.779Z,4.10
2018-03-18T13:00:20.156Z,4.10
2018-03-18T13:02:48.374Z,4.30
2018-03-18T13:05:16.608Z,1.90
2018-03-18T13:07:44.846Z,2.40
2018-03-18T13:10:13.091Z,3.40
2018-03-18T13:12:41.255Z,3.80
2018-03-18T13:15:10.244Z,3.80
2018-03-18T13:17:39.276Z,3.40
2018-03-18T13:20:07.482Z,3.40
2018-03-18T13:22:35.713Z,2.70
2018-03-18T13:25:03.936Z,2.30
2018-03-18T13:27:32.161Z,1.40
2018-03-18T13:30:00.410Z,1.40
2018-03-18T13:32:29.554Z,1.30
2018-03-18T13:34:57.801Z,1.30
2018-03-18T13:37:26.054Z,1.50
2018-03-18T13:39:55.065Z,1.20
2018-03-18T13:42:24.057Z,1.20
2018-03-18T13:44:52.409Z,1.20
2018-03-18T13:47:20.624Z,0.80
2018-03-18T13:49:48.835Z,0.70
2018-03-18T13:52:17.245Z,0.80
2018-03-18T13:54:45.442Z,0.90
2018-03-18T13:57:14.424Z,1.00
2018-03-18T13:59:42.612Z,1.00
2018-03-18T14:02:10.858Z,1.40
2018-03-18T14:04:39.153Z,1.10
2018-03-18T14:07:08.176Z,0.50
2018-03-18T14:09:36.475Z,0.50
2018-03-18T14:12:04.754Z,0.80
2018-03-18T14:14:33.382Z,1.10
2018-03-18T14:17:02.344Z,1.20
2018-03-18T14:19:30.608Z,1.10
2018-03-18T14:21:58.907Z,1.00
2018-03-18T14:24:27.160Z,1.00
2018-03-18T14:26:55.360Z,1.10
2018-03-18T14:29:23.733Z,1.40
2018-03-18T14:31:51.923Z,1.20
2018-03-18T14:34:20.117Z,1.20
2018-03-18T14:36:48.374Z,0.80
2018-03-18T14:39:16.563Z,0.50
2018-03-18T14:41:45.579Z,0.80
2018-03-18T14:44:13.816Z,0.70
2018-03-18T14:46:42.016Z,0.40
2018-03-18T14:49:10.281Z,0.40
2018-03-18T14:51:40.509Z,0.30
2018-03-18T14:54:09.508Z,0.20
2018-03-18T14:56:38.517Z,0.40
2018-03-18T14:59:06.820Z,0.40
2018-03-18T15:01:35.074Z,0.40
2018-03-18T15:04:03.284Z,0.40
2018-03-18T15:06:31.566Z,0.50
2018-03-18T15:08:59.929Z,0.30
2018-03-18T15:11:28.153Z,0.00
2018-03-18T15:13:56.475Z,0.30
2018-03-18T15:16:24.689Z,0.20
2018-03-18T15:18:53.792Z,0.20
2018-03-18T15:21:22.839Z,0.40
2018-03-18T15:23:51.028Z,0.40
2018-03-18T15:26:19.268Z,0.10
2018-03-18T15:28:47.521Z,0.20
2018-03-18T15:31:15.818Z,0.10
2018-03-18T15:33:44.066Z,0.20
2018-03-18T15:36:13.124Z,-0.30
2018-03-18T15:38:41.333Z,-0.30
2018-03-18T15:41:10.390Z,-0.10
2018-03-18T15:43:38.660Z,-0.10
2018-03-18T15:46:06.949Z,-0.10
2018-03-18T15:48:35.179Z,0.00
2018-03-18T15:51:04.158Z,-0.10
2018-03-18T15:53:32.393Z,-0.20
2018-03-18T15:56:00.602Z,-0.20
2018-03-18T15:58:29.525Z,-0.20
2018-03-18T16:00:57.725Z,-0.20
2018-03-18T16:03:27.856Z,-0.30
2018-03-18T16:05:56.405Z,-0.40
2018-03-18T16:10:50.389Z,-0.40
2018-03-18T16:13:18.689Z,-0.50
2018-03-18T16:15:47.070Z,-0.50
2018-03-18T16:18:15.264Z,-0.50
2018-03-18T16:20:43.838Z,-0.70
2018-03-18T16:23:12.054Z,-0.90
2018-03-18T16:25:41.743Z,-0.70
2018-03-18T16:28:09.988Z,-0.70
2018-03-18T16:30:49.873Z,-0.70
2018-03-18T16:33:18.353Z,-0.80
2018-03-18T16:35:46.558Z,-0.90
2018-03-18T16:38:14.877Z,-0.80
2018-03-18T16:40:43.211Z,-0.90
2018-03-18T16:43:12.202Z,-0.70
2018-03-18T16:45:41.256Z,-0.70
2018-03-18T16:48:09.492Z,-0.70
2018-03-18T16:50:37.805Z,-0.70
2018-03-18T16:53:06.818Z,-0.80
2018-03-18T16:55:36.460Z,-0.80
2018-03-18T16:58:04.671Z,-0.80
2018-03-18T17:00:32.948Z,-0.80
2018-03-18T17:03:01.220Z,-1.00
2018-03-18T17:05:29.632Z,-0.90
2018-03-18T17:07:57.891Z,-1.10
2018-03-18T17:10:26.215Z,-1.20
2018-03-18T17:12:54.695Z,-1.20
2018-03-18T17:15:23.817Z,-1.20
2018-03-18T17:17:52.460Z,-1.20
2018-03-18T17:20:21.973Z,-1.20
2018-03-18T17:22:50.401Z,-1.20
2018-03-18T17:25:18.677Z,-1.20
2018-03-18T17:27:46.899Z,-1.20
2018-03-18T17:30:15.897Z,-1.20
2018-03-18T17:32:44.966Z,-1.10
2018-03-18T17:35:14.138Z,-1.20
2018-03-18T17:37:42.345Z,-1.10
2018-03-18T17:40:10.597Z,-1.40
2018-03-18T17:42:38.789Z,-1.40
2018-03-18T17:45:21.245Z,-1.40
2018-03-18T17:48:01.836Z,-1.30
2018-03-18T17:50:37.264Z,-1.20
2018-03-18T17:53:17.262Z,-1.10
2018-03-18T17:55:45.480Z,-1.20
2018-03-18T17:58:13.702Z,-1.10
2018-03-18T18:00:41.968Z,-1.20
2018-03-18T18:03:10.869Z,-1.30
2018-03-18T18:05:39.054Z,-1.50
2018-03-18T18:08:07.408Z,-1.40
2018-03-18T18:10:36.306Z,-1.50
2018-03-18T18:13:04.847Z,-1.50
2018-03-18T18:15:33.867Z,-1.60
2018-03-18T18:18:02.113Z,-1.60
2018-03-18T18:20:31.107Z,-1.50
2018-03-18T18:22:59.369Z,-1.60
2018-03-18T18:25:28.839Z,-1.60
2018-03-18T18:27:57.249Z,-1.50
2018-03-18T18:30:26.051Z,-1.50
2018-03-18T18:32:54.336Z,-1.50
2018-03-18T18:35:23.325Z,-1.50
2018-03-18T18:37:51.783Z,-1.60
2018-03-18T18:40:20.159Z,-1.50
2018-03-18T18:42:48.372Z,-1.50
2018-03-18T18:45:17.360Z,-1.40
2018-03-18T18:47:46.889Z,-1.40
2018-03-18T18:50:15.257Z,-1.40
2018-03-18T18:52:44.276Z,-1.40
2018-03-18T18:55:12.536Z,-1.40
2018-03-18T18:57:40.826Z,-1.60
2018-03-18T19:00:09.474Z,-1.50
2018-03-18T19:02:37.689Z,-1.60
2018-03-18T19:05:05.916Z,-1.70
2018-03-18T19:07:34.123Z,-1.60
2018-03-18T19:10:03.608Z,-1.70
2018-03-18T19:12:31.798Z,-1.70
2018-03-18T19:14:59.998Z,-1.70
2018-03-18T19:17:28.286Z,-1.80
2018-03-18T19:19:56.721Z,-1.80
2018-03-18T19:22:25.861Z,-1.90
2018-03-18T19:24:54.522Z,-1.90
2018-03-18T19:27:22.784Z,-1.90
2018-03-18T19:29:51.025Z,-1.80
2018-03-18T19:32:19.337Z,-1.80
2018-03-18T19:34:47.547Z,-1.80
2018-03-18T19:37:15.862Z,-1.90
2018-03-18T19:39:44.809Z,-1.80
2018-03-18T19:42:13.045Z,-1.90
2018-03-18T19:44:41.287Z,-1.80
2018-03-18T19:47:09.721Z,-1.80
2018-03-18T19:49:37.989Z,-1.80
2018-03-18T19:52:06.184Z,-1.80
2018-03-18T19:54:34.545Z,-1.90
2018-03-18T19:57:02.839Z,-1.90
2018-03-18T19:59:31.086Z,-1.80
2018-03-18T20:02:01.414Z,-1.90
2018-03-18T20:04:30.362Z,-2.10
2018-03-18T20:06:59.030Z,-2.10
2018-03-18T20:09:28.107Z,-2.00
2018-03-18T20:11:56.325Z,-2.00
2018-03-18T20:14:24.722Z,-2.00
2018-03-18T20:16:52.934Z,-2.00
2018-03-18T20:19:21.209Z,-2.00
2018-03-18T20:21:49.489Z,-2.00
2018-03-18T20:24:17.828Z,-2.00
2018-03-18T20:26:46.036Z,-2.00
2018-03-18T20:29:14.342Z,-2.10
2018-03-18T20:31:42.693Z,-2.10
2018-03-18T20:34:11.186Z,-2.00
2018-03-18T20:36:40.317Z,-2.10
2018-03-18T20:39:08.682Z,-2.10
2018-03-18T20:41:37.027Z,-2.10
2018-03-18T20:44:05.663Z,-2.10
2018-03-18T20:46:34.029Z,-2.10
2018-03-18T20:49:02.237Z,-2.20
2018-03-18T20:51:31.293Z,-2.10
2018-03-18T20:53:59.669Z,-2.10
2018-03-18T20:56:28.700Z,-2.10
2018-03-18T20:58:57.829Z,-2.10
2018-03-18T21:01:26.964Z,-2.20
2018-03-18T21:03:55.305Z,-2.20
2018-03-18T21:06:23.556Z,-2.30
2018-03-18T21:08:52.549Z,-2.40
2018-03-18T21:11:21.549Z,-2.30
2018-03-18T21:13:50.527Z,-2.30
2018-03-18T21:16:18.756Z,-2.30
2018-03-18T21:18:46.956Z,-2.20
2018-03-18T21:21:15.174Z,-2.30
2018-03-18T21:23:43.538Z,-2.30
2018-03-18T21:26:12.500Z,-2.30
2018-03-18T21:28:40.751Z,-2.30
2018-03-18T21:31:08.973Z,-2.30
2018-03-18T21:33:37.835Z,-2.30
2018-03-18T21:36:06.845Z,-2.50
2018-03-18T21:38:35.269Z,-2.50
2018-03-18T21:41:03.541Z,-2.40
2018-03-18T21:43:31.754Z,-2.40
2018-03-18T21:46:00.329Z,-2.40
2018-03-18T21:48:28.715Z,-2.40
2018-03-18T21:50:56.998Z,-2.40
2018-03-18T21:53:25.314Z,-2.40
2018-03-18T21:55:54.310Z,-2.50
2018-03-18T21:58:23.333Z,-2.40
2018-03-18T22:00:51.582Z,-2.40
2018-03-18T22:03:20.591Z,-2.50
2018-03-18T22:05:48.844Z,-2.50
2018-03-18T22:08:18.041Z,-2.50
2018-03-18T22:10:46.288Z,-2.50
2018-03-18T22:13:14.642Z,-2.40
2018-03-18T22:15:43.103Z,-2.40
2018-03-18T22:18:12.065Z,-2.50
2018-03-18T22:20:41.248Z,-2.50
2018-03-18T22:23:09.515Z,-2.50
2018-03-18T22:25:37.740Z,-2.50
2018-03-18T22:28:05.937Z,-2.50
2018-03-18T22:30:34.183Z,-2.40
2018-03-18T22:33:03.154Z,-2.50
2018-03-18T22:35:31.377Z,-2.50
2018-03-18T22:37:59.725Z,-2.50
2018-03-18T22:40:28.112Z,-2.40
2018-03-18T22:42:57.077Z,-2.40
2018-03-18T22:45:25.347Z,-2.50
2018-03-18T22:47:53.542Z,-2.40
2018-03-18T22:50:22.551Z,-2.50
2018-03-18T22:52:51.568Z,-2.60
2018-03-18T22:55:19.853Z,-2.60
2018-03-18T22:57:48.069Z,-2.60
2018-03-18T23:00:18.255Z,-2.60
2018-03-18T23:02:47.241Z,-2.50
2018-03-18T23:05:15.449Z,-2.60
2018-03-18T23:07:43.693Z,-2.50
2018-03-18T23:10:11.899Z,-2.60
2018-03-18T23:12:40.102Z,-2.60
2018-03-18T23:15:09.928Z,-2.50
2018-03-18T23:17:38.168Z,-2.50
2018-03-18T23:20:06.389Z,-2.50
2018-03-18T23:22:34.657Z,-2.50
2018-03-18T23:25:02.889Z,-2.60
2018-03-18T23:27:31.341Z,-2.60
2018-03-18T23:29:59.591Z,-2.60
2018-03-18T23:32:28.125Z,-2.60
2018-03-18T23:34:56.361Z,-2.60
2018-03-18T23:37:25.468Z,-2.50
2018-03-18T23:39:53.769Z,-2.60
2018-03-18T23:42:22.007Z,-2.70
2018-03-18T23:44:51.088Z,-2.50
2018-03-18T23:47:20.096Z,-2.50
2018-03-18T23:49:49.138Z,-2.60
2018-03-18T23:52:17.449Z,-2.60
2018-03-18T23:54:45.701Z,-2.70
2018-03-18T23:57:13.923Z,-2.60
2018-03-18T23:59:42.962Z,-2.50
